Kezdőlap
METAR-TAF:

METAR-TAF

Repülőterek :

Zaqatala, Azerbajdzsán

földrajzi szélesség: 41-33-44N, földrajzi hosszúság: 46-40-02E, magasság: 330 m

Jelenlegi meteorológiai megfigyelések

A jelentés 52 perccel ezelõtt készült, 04:00 UTC
Különbözõ irányokból fújó szél 2 kt
Hőmérséklet -5°C
Páratartalom 93%
Légköri nyomás 1039 hPa
Látótávolság: 7000 m
Szórványos felhőzet 400 lábon
Borult 3000 lábon

METAR: UBBY 250400Z VRB02KT 7000 SCT004 OVC030 M05/M06 Q1039 R33/////// NOSIG RMK MT OBSC

Idő: 08:52 (04:52 UTC)

Előrejelzés

A jelentés 2 órával és 19 perccel ezelõtt készült, 02:33 UTC
Az előrejelzés 25-én 03 óra UTC és 25-én 12 óra UTC között érvényes
Különbözõ irányokból fújó szél 4 kt
Látótávolság 10 km, vagy több
Borult 5000 lábon
enyhe havazás

TAF: UBBY 250233Z 2503/2512 VRB04KT 9999 -SN OVC050

Meteorológiai megfigyelések és előrejelzések több, mint 4000 repülőtéren (METAR és TAF jelentéseket).

A térképen piros és sárga pontok jelzik az elérhető meteorológiai állomásokat.

Mozgassa az egeret a pont fölött, hogy megjelenjen az állomás neve.

Azután kattintson az időjárási megfigyelések és előrejelzések megtekintéséhez.

A térkép megváltoztatása: kattintson a fekete keresztel jelölt zöld gombra ráközelítéshez, a vonallal jelölt zöld gombra távolításhoz, vagy a zöld nyilakra a szomszédos térképek eléréséhez.


METAR-TAF: